Goliah — WDD5908 — position and weather

sailwx.info

Track history (hours):
 
Tides and Currents Weather Stations Pressure Air Temp Water Temp Dewpoint Dewpoint Depression Visibility Wind Speed Wind Dir Waves Ship Positions

Goliah

Owner: Crowley Marine Services, Seattle, WA. More information available from US FCC via Universal Licensing System and Coast Guard Vessel Documentation Center.

Last reported at 2017-Dec-17 04:23 UTC. Time now 2017-Dec-17 15:42 UTC.
Position N 38°02' W 122°09'.

Length 33 m; draft 4.8 m.

Type: Tug. MMSI: 366898250.

Date/timePositionNaut miles runAvg speedWind from/ knotsBaromVisibWave heightAir tempDewpointWater temp
2017-Dec-17 04:23N 38°02' W 122°09'1 0.6
2017-Dec-17 03:28N 38°02' W 122°09'3 6.6
2017-Dec-17 03:00N 38°03' W 122°12'2 3.5
2017-Dec-17 02:25N 38°03' W 122°15'0 0.0
2017-Dec-17 01:55N 38°03' W 122°15'0 0.1
2017-Dec-17 01:25N 38°03' W 122°15'0 0.1
2017-Dec-17 00:55N 38°03' W 122°15'0 0.0
2017-Dec-17 00:25N 38°03' W 122°15'0 0.0
2017-Dec-16 23:55N 38°03' W 122°15'0 0.0
2017-Dec-16 23:07N 38°03' W 122°15'0 0.0
2017-Dec-16 22:49N 38°03' W 122°15'0 0.0
2017-Dec-16 22:13N 38°03' W 122°15'0 0.0
2017-Dec-16 21:55N 38°03' W 122°15'0 0.0
2017-Dec-16 21:25N 38°03' W 122°15'0 0.0
2017-Dec-16 21:01N 38°03' W 122°15'0 0.0
2017-Dec-16 20:25N 38°03' W 122°15'0 0.0
2017-Dec-16 19:55N 38°03' W 122°15'0 0.0
2017-Dec-16 19:25N 38°03' W 122°15'0 0.1
2017-Dec-16 18:49N 38°03' W 122°15'2 5.9
2017-Dec-16 18:28N 38°03' W 122°12'3 2.1
2017-Dec-16 16:49N 38°02' W 122°08'3 6.7
2017-Dec-16 16:25N 38°03' W 122°11'4 9.9
2017-Dec-16 16:00N 38°04' W 122°16'510.7
2017-Dec-16 15:30N 38°02' W 122°23'510.6
2017-Dec-16 15:00N 37°57' W 122°27'510.1
2017-Dec-16 14:30N 37°53' W 122°25'4 8.2
2017-Dec-16 14:00N 37°49' W 122°28'2 4.4
2017-Dec-16 13:28N 37°49' W 122°31'0 0.1
2017-Dec-16 12:59N 37°49' W 122°31'2 3.6
2017-Dec-16 12:30N 37°48' W 122°30'3 5.4
2017-Dec-16 12:00N 37°49' W 122°26'3 6.2
2017-Dec-16 11:30N 37°48' W 122°23'3 6.3
2017-Dec-16 10:59N 37°48' W 122°19'1 1.7
2017-Dec-16 10:30N 37°48' W 122°18'0 1.0
2017-Dec-16 10:00N 37°48' W 122°18'2 4.9
2017-Dec-16 09:30N 37°48' W 122°21'2 3.2
2017-Dec-16 09:01N 37°48' W 122°23'1 1.1
2017-Dec-16 08:29N 37°48' W 122°24'0 0.0
2017-Dec-16 07:56N 37°48' W 122°24'0 0.0
2017-Dec-16 07:29N 37°48' W 122°24'0 0.0
2017-Dec-16 06:59N 37°48' W 122°24'0 0.0
2017-Dec-16 06:26N 37°48' W 122°24'0 0.0
2017-Dec-16 05:56N 37°48' W 122°24'0 0.0
2017-Dec-16 05:29N 37°48' W 122°24'0 0.0
2017-Dec-16 04:59N 37°48' W 122°24'0 0.0
2017-Dec-16 04:29N 37°48' W 122°24'0 0.0
2017-Dec-16 03:59N 37°48' W 122°24'0 0.0
2017-Dec-16 03:29N 37°48' W 122°24'0 0.0
2017-Dec-16 02:59N 37°48' W 122°24'0 0.0
2017-Dec-16 02:29N 37°48' W 122°24'0 0.0
2017-Dec-16 01:59N 37°48' W 122°24'0 0.0
2017-Dec-16 01:29N 37°48' W 122°24'0 0.0
2017-Dec-16 00:59N 37°48' W 122°24'3 5.4
2017-Dec-16 00:28N 37°48' W 122°20'0 0.2
2017-Dec-16 00:00N 37°49' W 122°20'0 0.8
2017-Dec-15 23:30N 37°49' W 122°20'3 5.2
2017-Dec-15 23:00N 37°48' W 122°23'1 1.1
2017-Dec-15 22:28N 37°48' W 122°24'0 0.0
2017-Dec-15 21:55N 37°48' W 122°24'0 0.0
2017-Dec-15 21:22N 37°48' W 122°24'0 0.0
2017-Dec-15 20:58N 37°48' W 122°24'0 0.0
2017-Dec-15 20:25N 37°48' W 122°24'0 0.0
2017-Dec-15 19:58N 37°48' W 122°24'0 0.0
2017-Dec-15 19:28N 37°48' W 122°24'0 0.0
2017-Dec-15 18:58N 37°48' W 122°24'0 0.0
2017-Dec-15 18:28N 37°48' W 122°24'0 0.0
2017-Dec-15 17:58N 37°48' W 122°24'0 0.0
2017-Dec-15 17:28N 37°48' W 122°24'2 4.8
2017-Dec-15 17:00N 37°50' W 122°24'5 9.7
2017-Dec-15 16:30N 37°55' W 122°25'1 1.2
2017-Dec-15 15:57N 37°56' W 122°25'0 0.1
2017-Dec-15 15:30N 37°56' W 122°25'0 0.3
2017-Dec-15 14:55N 37°56' W 122°25'0 0.0
2017-Dec-15 11:58N 37°56' W 122°25'0 0.0
2017-Dec-15 09:06N 37°56' W 122°25'0 3.8
2017-Dec-15 09:00N 37°55' W 122°25'5 9.3
2017-Dec-15 08:30N 37°51' W 122°27'4 7.1
2017-Dec-15 08:00N 37°48' W 122°30'2 3.2
2017-Dec-15 07:31N 37°49' W 122°28'4 8.0
2017-Dec-15 07:01N 37°52' W 122°25'5 9.9
2017-Dec-15 06:31N 37°57' W 122°27'5 9.6
2017-Dec-15 06:00N 38°01' W 122°23'5 9.6
2017-Dec-15 05:30N 38°03' W 122°18'5 8.1
2017-Dec-15 04:53N 38°03' W 122°12'3 7.7
2017-Dec-15 04:31N 38°02' W 122°08'3 1.4
2017-Dec-15 02:30N 38°03' W 122°12'11 7.0
2017-Dec-15 00:59N 38°00' W 122°24'4 8.0
2017-Dec-15 00:30N 37°56' W 122°26'8 1.4
2017-Dec-14 18:30N 37°48' W 122°24'0 0.0
2017-Dec-14 18:00N 37°48' W 122°24'0 0.0
2017-Dec-14 17:27N 37°48' W 122°24'0 0.0
2017-Dec-14 17:00N 37°48' W 122°24'0 0.0
2017-Dec-14 16:30N 37°48' W 122°24'0 0.0
2017-Dec-14 15:59N 37°48' W 122°24'5 5.4
2017-Dec-14 15:01N 37°53' W 122°25'2 4.5
2017-Dec-14 14:30N 37°56' W 122°25'0 0.1
2017-Dec-14 13:54N 37°56' W 122°25'1 2.4
2017-Dec-14 13:31N 37°55' W 122°25'3 6.7
2017-Dec-14 13:00N 37°51' W 122°24'3 6.2
2017-Dec-14 12:29N 37°48' W 122°24'0 0.0
2017-Dec-14 11:59N 37°48' W 122°24'0 0.0
2017-Dec-14 11:29N 37°48' W 122°24'0 0.0
2017-Dec-14 10:59N 37°48' W 122°24'0 0.0
2017-Dec-14 10:29N 37°48' W 122°24'0 0.0
2017-Dec-14 09:59N 37°48' W 122°24'0 0.0
2017-Dec-14 09:29N 37°48' W 122°24'0 0.0
2017-Dec-14 08:59N 37°48' W 122°24'0 0.0
2017-Dec-14 08:29N 37°48' W 122°24'0 0.0
2017-Dec-14 07:59N 37°48' W 122°24'0 0.0
2017-Dec-14 07:29N 37°48' W 122°24'0 0.0
2017-Dec-14 06:59N 37°48' W 122°24'0 0.0
2017-Dec-14 06:29N 37°48' W 122°24'0 0.0
2017-Dec-14 05:56N 37°48' W 122°24'0 0.0
2017-Dec-14 05:29N 37°48' W 122°24'0 0.0
2017-Dec-14 04:59N 37°48' W 122°24'1 1.5
2017-Dec-14 04:30N 37°48' W 122°23'3 5.8
2017-Dec-14 03:59N 37°48' W 122°19'1 1.8
2017-Dec-14 03:30N 37°48' W 122°20'1 2.3
2017-Dec-14 03:00N 37°48' W 122°22'0 0.9
2017-Dec-14 02:30N 37°48' W 122°21'1 2.2
2017-Dec-14 01:58N 37°49' W 122°20'0 0.0
2017-Dec-14 01:28N 37°49' W 122°20'0 0.3
2017-Dec-14 01:01N 37°49' W 122°20'0 0.2
2017-Dec-14 00:30N 37°49' W 122°20'0 0.1
2017-Dec-13 23:59N 37°49' W 122°20'0 0.0
2017-Dec-13 23:30N 37°49' W 122°20'4 8.9
2017-Dec-13 23:00N 37°49' W 122°26'3 6.5
2017-Dec-13 22:30N 37°48' W 122°30'2 4.6
2017-Dec-13 22:00N 37°50' W 122°28'4 8.1
2017-Dec-13 21:30N 37°54' W 122°26'612.4
2017-Dec-13 21:00N 37°60' W 122°25'510.9
2017-Dec-13 20:30N 38°03' W 122°20'4 8.7
2017-Dec-13 20:00N 38°04' W 122°14'4 8.1
2017-Dec-13 19:27N 38°02' W 122°09'1 1.5
2017-Dec-13 18:49N 38°02' W 122°08'0 0.1
2017-Dec-13 18:25N 38°02' W 122°08'0 0.3
2017-Dec-13 18:00N 38°02' W 122°08'1 0.1
2017-Dec-13 08:06N 38°02' W 122°09'1 0.8
2017-Dec-13 06:55N 38°02' W 122°08'2 2.0
2017-Dec-13 05:53N 38°03' W 122°11'410.3
2017-Dec-13 05:30N 38°04' W 122°16'510.1
2017-Dec-13 05:00N 38°02' W 122°22'510.0
2017-Dec-13 04:30N 37°58' W 122°26'511.0
2017-Dec-13 04:00N 37°53' W 122°26'4 8.2
2017-Dec-13 03:31N 37°49' W 122°29'1 1.1
2017-Dec-13 03:00N 37°49' W 122°30'4 8.5
2017-Dec-13 02:31N 37°50' W 122°24'5 9.6
2017-Dec-13 02:01N 37°46' W 122°21'1 1.4
2017-Dec-13 01:31N 37°45' W 122°20'4 7.1
2017-Dec-13 00:56N 37°48' W 122°24'0 0.0
2017-Dec-13 00:26N 37°48' W 122°24'0 0.0
2017-Dec-12 23:56N 37°48' W 122°24'0 0.0
2017-Dec-12 23:29N 37°48' W 122°24'0 0.0
2017-Dec-12 22:59N 37°48' W 122°24'0 0.0
2017-Dec-12 22:29N 37°48' W 122°24'0 0.0
2017-Dec-12 21:56N 37°48' W 122°24'0 0.0
2017-Dec-12 21:29N 37°48' W 122°24'0 0.0
2017-Dec-12 20:59N 37°48' W 122°24'0 0.0
2017-Dec-12 20:30N 37°48' W 122°24'5 9.7
2017-Dec-12 20:00N 37°44' W 122°21'0 0.5
2017-Dec-12 19:30N 37°44' W 122°21'3 6.8
2017-Dec-12 19:00N 37°47' W 122°23'4 8.8
2017-Dec-12 18:30N 37°51' W 122°25'5 9.8
2017-Dec-12 18:00N 37°56' W 122°27'5 9.4
2017-Dec-12 17:30N 38°01' W 122°24'4 8.8
2017-Dec-12 17:00N 38°03' W 122°20'4 7.9
2017-Dec-12 16:30N 38°04' W 122°15'4 6.9
2017-Dec-12 15:59N 38°03' W 122°10'3 5.9
2017-Dec-12 15:25N 38°03' W 122°06'1 1.2
2017-Dec-12 14:50N 38°03' W 122°05'5 7.2
2017-Dec-12 14:08N 38°03' W 122°12'111.7
2017-Dec-12 14:00N 38°04' W 122°14'611.2
2017-Dec-12 13:30N 38°02' W 122°21'611.7
2017-Dec-12 13:00N 37°58' W 122°26'3 4.5
2017-Dec-12 12:18N 37°55' W 122°25'0 0.1
2017-Dec-12 11:51N 37°55' W 122°25'1 2.3
2017-Dec-12 11:30N 37°55' W 122°25'2 3.2
2017-Dec-12 11:00N 37°53' W 122°25'2 4.6
2017-Dec-12 10:29N 37°56' W 122°25'0 0.0
2017-Dec-12 09:59N 37°56' W 122°25'0 0.0
2017-Dec-12 09:29N 37°56' W 122°25'0 0.0
2017-Dec-12 08:59N 37°56' W 122°25'0 0.0
2017-Dec-12 08:29N 37°56' W 122°25'0 0.0
2017-Dec-12 07:59N 37°56' W 122°25'0 0.0
2017-Dec-12 07:29N 37°56' W 122°25'0 0.0
2017-Dec-12 06:59N 37°56' W 122°25'0 0.0
2017-Dec-12 06:29N 37°56' W 122°25'0 0.0
2017-Dec-12 05:59N 37°56' W 122°25'0 0.0
2017-Dec-12 05:29N 37°56' W 122°25'0 0.0
2017-Dec-12 04:59N 37°56' W 122°25'0 0.0
2017-Dec-12 04:29N 37°56' W 122°25'0 0.0
2017-Dec-12 03:59N 37°56' W 122°25'0 0.0
2017-Dec-12 03:29N 37°56' W 122°25'0 0.0
2017-Dec-12 02:59N 37°56' W 122°25'0 0.2
2017-Dec-12 02:30N 37°56' W 122°25'0 0.2
2017-Dec-12 02:00N 37°56' W 122°25'1 2.3
2017-Dec-12 01:30N 37°54' W 122°25'1 1.5
2017-Dec-12 01:00N 37°54' W 122°25'2 2.9
2017-Dec-12 00:29N 37°55' W 122°25'0 0.0
2017-Dec-11 23:59N 37°55' W 122°25'0 0.0
2017-Dec-11 23:29N 37°55' W 122°25'2 4.6
2017-Dec-11 23:00N 37°57' W 122°26'611.5
2017-Dec-11 22:30N 38°02' W 122°22'612.7
2017-Dec-11 22:00N 38°04' W 122°14'4 1.9
2017-Dec-11 19:42N 38°02' W 122°09'1 1.9
2017-Dec-11 19:18N 38°02' W 122°08'0 0.0
2017-Dec-11 19:00N 38°02' W 122°08'1 2.3
2017-Dec-11 18:30N 38°02' W 122°09'1 0.4
2017-Dec-11 15:27N 38°03' W 122°11'4 8.9
2017-Dec-11 14:59N 38°03' W 122°16'0 0.0
2017-Dec-11 14:29N 38°03' W 122°16'0 0.3
2017-Dec-11 13:57N 38°04' W 122°16'2 4.4
2017-Dec-11 13:30N 38°03' W 122°18'510.1
2017-Dec-11 13:00N 38°01' W 122°24'611.3
2017-Dec-11 12:30N 37°56' W 122°27'510.6
2017-Dec-11 12:00N 37°51' W 122°24'4 7.3
2017-Dec-11 11:31N 37°49' W 122°28'2 3.2
2017-Dec-11 11:00N 37°48' W 122°29'3 5.8
2017-Dec-11 10:30N 37°49' W 122°26'2 3.5
2017-Dec-11 09:57N 37°48' W 122°24'0 0.0
2017-Dec-11 09:30N 37°48' W 122°24'0 0.0
2017-Dec-11 09:00N 37°48' W 122°24'0 0.0
2017-Dec-11 08:30N 37°48' W 122°24'0 0.0
2017-Dec-11 07:57N 37°48' W 122°24'0 0.0
2017-Dec-11 07:30N 37°48' W 122°24'0 0.0
2017-Dec-11 06:54N 37°48' W 122°24'0 0.0
2017-Dec-11 06:30N 37°48' W 122°24'0 0.0
2017-Dec-11 06:00N 37°48' W 122°24'0 0.0
2017-Dec-11 05:30N 37°48' W 122°24'0 0.0
2017-Dec-11 05:00N 37°48' W 122°24'0 0.0
2017-Dec-11 04:30N 37°48' W 122°24'0 0.0
2017-Dec-11 03:57N 37°48' W 122°24'0 0.0
2017-Dec-11 03:30N 37°48' W 122°24'1 1.7
2017-Dec-11 03:00N 37°48' W 122°23'3 5.4
2017-Dec-11 02:29N 37°48' W 122°19'1 1.1
2017-Dec-11 02:00N 37°48' W 122°20'3 5.4
2017-Dec-11 01:30N 37°48' W 122°23'0 0.8
2017-Dec-11 01:00N 37°48' W 122°24'0 0.0
2017-Dec-11 00:30N 37°48' W 122°24'0 0.0
2017-Dec-11 00:00N 37°48' W 122°24'0 0.0
2017-Dec-10 23:30N 37°48' W 122°24'0 0.0
2017-Dec-10 23:00N 37°48' W 122°24'0 0.0
2017-Dec-10 22:30N 37°48' W 122°24'0 0.0
2017-Dec-10 22:00N 37°48' W 122°24'0 0.0
2017-Dec-10 21:27N 37°48' W 122°24'0 0.0
2017-Dec-10 21:00N 37°48' W 122°24'0 0.0
2017-Dec-10 20:30N 37°48' W 122°24'0 0.0
2017-Dec-10 19:54N 37°48' W 122°24'0 0.0
2017-Dec-10 19:30N 37°48' W 122°24'0 0.0
2017-Dec-10 19:00N 37°48' W 122°24'0 0.0
2017-Dec-10 18:30N 37°48' W 122°24'0 0.0
2017-Dec-10 18:00N 37°48' W 122°24'0 0.0
2017-Dec-10 17:30N 37°48' W 122°24'0 0.0
2017-Dec-10 17:00N 37°48' W 122°24'0 0.0
2017-Dec-10 16:30N 37°48' W 122°24'0 0.0
2017-Dec-10 16:00N 37°48' W 122°24'0 0.0
2017-Dec-10 15:30N 37°48' W 122°24'0 0.0
2017-Dec-10 15:00N 37°48' W 122°24'1 2.0
2017-Dec-10 14:30N 37°48' W 122°23'2 3.5
2017-Dec-10 13:59N 37°49' W 122°20'1 1.4
2017-Dec-10 13:31N 37°49' W 122°20'2 4.2
2017-Dec-10 13:01N 37°48' W 122°22'1 2.6
2017-Dec-10 12:30N 37°48' W 122°20'0 0.0
2017-Dec-10 12:00N 37°48' W 122°20'0 0.0
2017-Dec-10 11:30N 37°48' W 122°20'0 0.0
2017-Dec-10 11:00N 37°48' W 122°20'0 0.0
2017-Dec-10 10:30N 37°48' W 122°20'0 0.1
2017-Dec-10 10:00N 37°48' W 122°21'0 0.1
2017-Dec-10 09:30N 37°48' W 122°20'0 0.0
2017-Dec-10 09:00N 37°48' W 122°20'0 0.0
2017-Dec-10 08:30N 37°48' W 122°20'2 2.8
2017-Dec-10 07:58N 37°48' W 122°19'0 0.3
2017-Dec-10 07:31N 37°48' W 122°19'1 1.9
2017-Dec-10 07:00N 37°48' W 122°17'2 3.9
2017-Dec-10 06:30N 37°48' W 122°20'2 4.6
2017-Dec-10 06:00N 37°49' W 122°23'3 5.7
2017-Dec-10 05:30N 37°51' W 122°24'3 6.4
2017-Dec-10 05:00N 37°55' W 122°24'2 3.6
2017-Dec-10 04:25N 37°55' W 122°22'0 0.0
2017-Dec-10 03:58N 37°55' W 122°22'0 0.0
2017-Dec-10 03:28N 37°55' W 122°22'0 0.0
2017-Dec-10 02:58N 37°55' W 122°22'0 0.0
2017-Dec-10 02:25N 37°55' W 122°22'0 0.0
2017-Dec-10 01:58N 37°55' W 122°22'0 0.0
2017-Dec-10 01:30N 37°55' W 122°22'0 0.3
2017-Dec-10 00:58N 37°55' W 122°22'0 0.0
2017-Dec-10 00:28N 37°55' W 122°22'0 0.0
2017-Dec-09 23:58N 37°55' W 122°22'0 0.0
2017-Dec-09 23:28N 37°55' W 122°22'0 0.0
2017-Dec-09 22:58N 37°55' W 122°22'0 0.0
2017-Dec-09 22:25N 37°55' W 122°22'0 1.1
2017-Dec-09 22:00N 37°55' W 122°22'1 2.1
2017-Dec-09 21:29N 37°54' W 122°23'0 0.1
2017-Dec-09 20:59N 37°54' W 122°23'0 0.0
2017-Dec-09 20:29N 37°54' W 122°23'0 0.0
2017-Dec-09 19:59N 37°54' W 122°23'0 0.0
2017-Dec-09 19:29N 37°54' W 122°23'0 0.1
2017-Dec-09 18:59N 37°54' W 122°23'0 0.1
2017-Dec-09 18:29N 37°54' W 122°23'0 0.1
2017-Dec-09 17:59N 37°54' W 122°23'0 0.0
2017-Dec-09 17:29N 37°54' W 122°23'0 0.0
2017-Dec-09 16:59N 37°54' W 122°23'0 0.1
2017-Dec-09 16:30N 37°54' W 122°23'1 2.3
2017-Dec-09 15:58N 37°55' W 122°22'0 0.0
2017-Dec-09 15:25N 37°55' W 122°22'0 0.0
2017-Dec-09 14:58N 37°55' W 122°22'0 0.0
2017-Dec-09 14:28N 37°55' W 122°22'0 0.0
2017-Dec-09 13:58N 37°55' W 122°22'0 0.0
2017-Dec-09 13:28N 37°55' W 122°22'0 0.0
2017-Dec-09 12:58N 37°55' W 122°22'0 0.0
2017-Dec-09 12:28N 37°55' W 122°22'0 0.0
2017-Dec-09 11:58N 37°55' W 122°22'0 0.0
2017-Dec-09 11:28N 37°55' W 122°22'0 0.0
2017-Dec-09 10:58N 37°55' W 122°22'0 0.0
2017-Dec-09 10:28N 37°55' W 122°22'0 0.0
2017-Dec-09 09:58N 37°55' W 122°22'0 0.0
2017-Dec-09 09:28N 37°55' W 122°22'0 0.0
2017-Dec-09 08:58N 37°55' W 122°22'0 0.0
2017-Dec-09 08:28N 37°55' W 122°22'0 0.0
2017-Dec-09 07:55N 37°55' W 122°22'0 0.0
2017-Dec-09 07:28N 37°55' W 122°22'0 0.0
2017-Dec-09 06:58N 37°55' W 122°22'0 0.0
2017-Dec-09 06:28N 37°55' W 122°22'0 0.0
2017-Dec-09 05:58N 37°55' W 122°22'0 0.0
2017-Dec-09 05:28N 37°55' W 122°22'0 0.0
2017-Dec-09 04:58N 37°55' W 122°22'0 0.0
2017-Dec-09 04:28N 37°55' W 122°22'0 0.0
2017-Dec-09 03:58N 37°55' W 122°22'0 0.0
2017-Dec-09 03:28N 37°55' W 122°22'0 0.0
2017-Dec-09 02:58N 37°55' W 122°22'0 0.0
2017-Dec-09 02:28N 37°55' W 122°22'0 0.0
2017-Dec-09 01:55N 37°55' W 122°22'2 5.1
2017-Dec-09 01:30N 37°55' W 122°24'5 9.4
2017-Dec-09 01:00N 37°50' W 122°24'2 2.9
2017-Dec-09 00:29N 37°48' W 122°24'0 0.1
2017-Dec-08 23:56N 37°48' W 122°24'0 0.4
2017-Dec-08 23:29N 37°48' W 122°24'0 0.0
2017-Dec-08 22:59N 37°48' W 122°24'0 0.0
2017-Dec-08 22:26N 37°48' W 122°24'1 3.3
2017-Dec-08 22:00N 37°50' W 122°24'510.3
2017-Dec-08 21:30N 37°55' W 122°25'5 8.9
2017-Dec-08 21:00N 37°59' W 122°25'5 9.6
2017-Dec-08 20:30N 38°02' W 122°21'5 9.0
2017-Dec-08 19:59N 38°03' W 122°15'0 0.0
2017-Dec-08 19:29N 38°03' W 122°15'0 0.0
2017-Dec-08 18:59N 38°03' W 122°15'0 0.1
2017-Dec-08 18:29N 38°03' W 122°15'0 0.1
2017-Dec-08 17:59N 38°03' W 122°15'0 0.0
2017-Dec-08 17:29N 38°03' W 122°15'0 0.0
2017-Dec-08 16:53N 38°03' W 122°15'0 0.0
2017-Dec-08 16:29N 38°03' W 122°15'0 0.0
2017-Dec-08 15:59N 38°03' W 122°15'0 0.9
2017-Dec-08 15:30N 38°04' W 122°15'0 0.6
2017-Dec-08 14:50N 38°03' W 122°16'0 0.2
2017-Dec-08 14:30N 38°03' W 122°16'1 1.4
2017-Dec-08 13:54N 38°03' W 122°15'0 0.0
2017-Dec-08 13:30N 38°03' W 122°15'0 0.0
2017-Dec-08 13:00N 38°03' W 122°15'0 0.0
2017-Dec-08 12:24N 38°03' W 122°15'0 0.0
2017-Dec-08 12:00N 38°03' W 122°15'0 0.0
2017-Dec-08 11:30N 38°03' W 122°15'0 0.0
2017-Dec-08 11:00N 38°03' W 122°15'0 0.0
2017-Dec-08 10:30N 38°03' W 122°15'0 0.0
2017-Dec-08 10:00N 38°03' W 122°15'0 0.1
2017-Dec-08 09:30N 38°03' W 122°15'510.2
2017-Dec-08 09:00N 38°02' W 122°09'0 0.2
2017-Dec-08 07:28N 38°02' W 122°08'2 1.0
2017-Dec-08 05:24N 38°03' W 122°11'3 7.8
2017-Dec-08 05:00N 38°04' W 122°15'4 7.5
2017-Dec-08 04:30N 38°03' W 122°19'4 8.1
2017-Dec-08 04:00N 38°01' W 122°24'4 7.9
2017-Dec-08 03:30N 37°57' W 122°26'4 8.5
2017-Dec-08 03:00N 37°53' W 122°25'510.9
2017-Dec-08 02:30N 37°48' W 122°22'1 2.4
2017-Dec-08 02:00N 37°49' W 122°20'0 0.1
2017-Dec-08 01:30N 37°49' W 122°20'3 5.3
2017-Dec-08 00:57N 37°48' W 122°24'0 0.0
2017-Dec-08 00:30N 37°48' W 122°24'0 0.0
2017-Dec-08 00:00N 37°48' W 122°24'0 0.0
2017-Dec-07 23:27N 37°48' W 122°24'0 0.0
2017-Dec-07 23:00N 37°48' W 122°24'0 0.0
2017-Dec-07 22:30N 37°48' W 122°24'0 0.0
2017-Dec-07 22:00N 37°48' W 122°24'0 0.0
2017-Dec-07 21:21N 37°48' W 122°24'0 0.0
2017-Dec-07 20:57N 37°48' W 122°24'0 0.0
2017-Dec-07 20:30N 37°48' W 122°24'0 0.0
2017-Dec-07 20:00N 37°48' W 122°24'0 0.0
2017-Dec-07 19:27N 37°48' W 122°24'0 0.0
2017-Dec-07 19:00N 37°48' W 122°24'0 0.0
2017-Dec-07 18:30N 37°48' W 122°24'611.2
2017-Dec-07 18:00N 37°54' W 122°25'2 3.7
2017-Dec-07 17:30N 37°56' W 122°25'0 0.0
2017-Dec-07 14:56N 37°56' W 122°25'0 0.0
2017-Dec-07 14:27N 37°56' W 122°25'0 0.5
2017-Dec-07 13:58N 37°55' W 122°25'0 0.1
2017-Dec-07 13:31N 37°55' W 122°25'1 2.4
2017-Dec-07 13:00N 37°56' W 122°26'4 8.0
2017-Dec-07 12:30N 38°00' W 122°25'5 9.8
2017-Dec-07 12:00N 38°03' W 122°20'4 8.3
2017-Dec-07 11:30N 38°04' W 122°15'3 6.5
2017-Dec-07 11:00N 38°03' W 122°11'3 5.9
2017-Dec-07 10:27N 38°03' W 122°06'0 0.7
2017-Dec-07 09:57N 38°03' W 122°06'2 3.8
2017-Dec-07 09:29N 38°02' W 122°08'0 0.0
2017-Dec-07 08:59N 38°02' W 122°08'0 0.0
2017-Dec-07 07:41N 38°02' W 122°08'0 0.0
2017-Dec-07 07:29N 38°02' W 122°08'0 0.0
2017-Dec-07 06:59N 38°02' W 122°08'1 1.0
2017-Dec-07 06:18N 38°02' W 122°07'1 3.1
2017-Dec-07 06:00N 38°02' W 122°09'  
Track history (hours):
 
Tides and Currents Weather Stations Pressure Air Temp Water Temp Dewpoint Dewpoint Depression Visibility Wind Speed Wind Dir Waves Ship Positions

Goliah

Owner: Crowley Marine Services, Seattle, WA. More information available from US FCC via Universal Licensing System and Coast Guard Vessel Documentation Center.

Last reported at 2017-Dec-17 04:23 UTC. Time now 2017-Dec-17 15:42 UTC.
Position N 38°02' W 122°09'.

Length 33 m; draft 4.8 m.

Type: Tug. MMSI: 366898250.

Date/timePositionNaut miles runAvg speedWind from/ knotsBaromVisibWave heightAir tempDewpointWater temp
2017-Dec-17 04:23N 38°02' W 122°09'1 0.6
2017-Dec-17 03:28N 38°02' W 122°09'3 6.6
2017-Dec-17 03:00N 38°03' W 122°12'2 3.5
2017-Dec-17 02:25N 38°03' W 122°15'0 0.0
2017-Dec-17 01:55N 38°03' W 122°15'0 0.1
2017-Dec-17 01:25N 38°03' W 122°15'0 0.1
2017-Dec-17 00:55N 38°03' W 122°15'0 0.0
2017-Dec-17 00:25N 38°03' W 122°15'0 0.0
2017-Dec-16 23:55N 38°03' W 122°15'0 0.0
2017-Dec-16 23:07N 38°03' W 122°15'0 0.0
2017-Dec-16 22:49N 38°03' W 122°15'0 0.0
2017-Dec-16 22:13N 38°03' W 122°15'0 0.0
2017-Dec-16 21:55N 38°03' W 122°15'0 0.0
2017-Dec-16 21:25N 38°03' W 122°15'0 0.0
2017-Dec-16 21:01N 38°03' W 122°15'0 0.0
2017-Dec-16 20:25N 38°03' W 122°15'0 0.0
2017-Dec-16 19:55N 38°03' W 122°15'0 0.0
2017-Dec-16 19:25N 38°03' W 122°15'0 0.1
2017-Dec-16 18:49N 38°03' W 122°15'2 5.9
2017-Dec-16 18:28N 38°03' W 122°12'3 2.1
2017-Dec-16 16:49N 38°02' W 122°08'3 6.7
2017-Dec-16 16:25N 38°03' W 122°11'4 9.9
2017-Dec-16 16:00N 38°04' W 122°16'510.7
2017-Dec-16 15:30N 38°02' W 122°23'510.6
2017-Dec-16 15:00N 37°57' W 122°27'510.1
2017-Dec-16 14:30N 37°53' W 122°25'4 8.2
2017-Dec-16 14:00N 37°49' W 122°28'2 4.4
2017-Dec-16 13:28N 37°49' W 122°31'0 0.1
2017-Dec-16 12:59N 37°49' W 122°31'2 3.6
2017-Dec-16 12:30N 37°48' W 122°30'3 5.4
2017-Dec-16 12:00N 37°49' W 122°26'3 6.2
2017-Dec-16 11:30N 37°48' W 122°23'3 6.3
2017-Dec-16 10:59N 37°48' W 122°19'1 1.7
2017-Dec-16 10:30N 37°48' W 122°18'0 1.0
2017-Dec-16 10:00N 37°48' W 122°18'2 4.9
2017-Dec-16 09:30N 37°48' W 122°21'2 3.2
2017-Dec-16 09:01N 37°48' W 122°23'1 1.1
2017-Dec-16 08:29N 37°48' W 122°24'0 0.0
2017-Dec-16 07:56N 37°48' W 122°24'0 0.0
2017-Dec-16 07:29N 37°48' W 122°24'0 0.0
2017-Dec-16 06:59N 37°48' W 122°24'0 0.0
2017-Dec-16 06:26N 37°48' W 122°24'0 0.0
2017-Dec-16 05:56N 37°48' W 122°24'0 0.0
2017-Dec-16 05:29N 37°48' W 122°24'0 0.0
2017-Dec-16 04:59N 37°48' W 122°24'0 0.0
2017-Dec-16 04:29N 37°48' W 122°24'0 0.0
2017-Dec-16 03:59N 37°48' W 122°24'0 0.0
2017-Dec-16 03:29N 37°48' W 122°24'0 0.0
2017-Dec-16 02:59N 37°48' W 122°24'0 0.0
2017-Dec-16 02:29N 37°48' W 122°24'0 0.0
2017-Dec-16 01:59N 37°48' W 122°24'0 0.0
2017-Dec-16 01:29N 37°48' W 122°24'0 0.0
2017-Dec-16 00:59N 37°48' W 122°24'3 5.4
2017-Dec-16 00:28N 37°48' W 122°20'0 0.2
2017-Dec-16 00:00N 37°49' W 122°20'0 0.8
2017-Dec-15 23:30N 37°49' W 122°20'3 5.2
2017-Dec-15 23:00N 37°48' W 122°23'1 1.1
2017-Dec-15 22:28N 37°48' W 122°24'0 0.0
2017-Dec-15 21:55N 37°48' W 122°24'0 0.0
2017-Dec-15 21:22N 37°48' W 122°24'0 0.0
2017-Dec-15 20:58N 37°48' W 122°24'0 0.0
2017-Dec-15 20:25N 37°48' W 122°24'0 0.0
2017-Dec-15 19:58N 37°48' W 122°24'0 0.0
2017-Dec-15 19:28N 37°48' W 122°24'0 0.0
2017-Dec-15 18:58N 37°48' W 122°24'0 0.0
2017-Dec-15 18:28N 37°48' W 122°24'0 0.0
2017-Dec-15 17:58N 37°48' W 122°24'0 0.0
2017-Dec-15 17:28N 37°48' W 122°24'2 4.8
2017-Dec-15 17:00N 37°50' W 122°24'5 9.7
2017-Dec-15 16:30N 37°55' W 122°25'1 1.2
2017-Dec-15 15:57N 37°56' W 122°25'0 0.1
2017-Dec-15 15:30N 37°56' W 122°25'0 0.3
2017-Dec-15 14:55N 37°56' W 122°25'0 0.0
2017-Dec-15 11:58N 37°56' W 122°25'0 0.0
2017-Dec-15 09:06N 37°56' W 122°25'0 3.8
2017-Dec-15 09:00N 37°55' W 122°25'5 9.3
2017-Dec-15 08:30N 37°51' W 122°27'4 7.1
2017-Dec-15 08:00N 37°48' W 122°30'2 3.2
2017-Dec-15 07:31N 37°49' W 122°28'4 8.0
2017-Dec-15 07:01N 37°52' W 122°25'5 9.9
2017-Dec-15 06:31N 37°57' W 122°27'5 9.6
2017-Dec-15 06:00N 38°01' W 122°23'5 9.6
2017-Dec-15 05:30N 38°03' W 122°18'5 8.1
2017-Dec-15 04:53N 38°03' W 122°12'3 7.7
2017-Dec-15 04:31N 38°02' W 122°08'3 1.4
2017-Dec-15 02:30N 38°03' W 122°12'11 7.0
2017-Dec-15 00:59N 38°00' W 122°24'4 8.0
2017-Dec-15 00:30N 37°56' W 122°26'8 1.4
2017-Dec-14 18:30N 37°48' W 122°24'0 0.0
2017-Dec-14 18:00N 37°48' W 122°24'0 0.0
2017-Dec-14 17:27N 37°48' W 122°24'0 0.0
2017-Dec-14 17:00N 37°48' W 122°24'0 0.0
2017-Dec-14 16:30N 37°48' W 122°24'0 0.0
2017-Dec-14 15:59N 37°48' W 122°24'5 5.4
2017-Dec-14 15:01N 37°53' W 122°25'2 4.5
2017-Dec-14 14:30N 37°56' W 122°25'0 0.1
2017-Dec-14 13:54N 37°56' W 122°25'1 2.4
2017-Dec-14 13:31N 37°55' W 122°25'3 6.7
2017-Dec-14 13:00N 37°51' W 122°24'3 6.2
2017-Dec-14 12:29N 37°48' W 122°24'0 0.0
2017-Dec-14 11:59N 37°48' W 122°24'0 0.0
2017-Dec-14 11:29N 37°48' W 122°24'0 0.0
2017-Dec-14 10:59N 37°48' W 122°24'0 0.0
2017-Dec-14 10:29N 37°48' W 122°24'0 0.0
2017-Dec-14 09:59N 37°48' W 122°24'0 0.0
2017-Dec-14 09:29N 37°48' W 122°24'0 0.0
2017-Dec-14 08:59N 37°48' W 122°24'0 0.0
2017-Dec-14 08:29N 37°48' W 122°24'0 0.0
2017-Dec-14 07:59N 37°48' W 122°24'0 0.0
2017-Dec-14 07:29N 37°48' W 122°24'0 0.0
2017-Dec-14 06:59N 37°48' W 122°24'0 0.0
2017-Dec-14 06:29N 37°48' W 122°24'0 0.0
2017-Dec-14 05:56N 37°48' W 122°24'0 0.0
2017-Dec-14 05:29N 37°48' W 122°24'0 0.0
2017-Dec-14 04:59N 37°48' W 122°24'1 1.5
2017-Dec-14 04:30N 37°48' W 122°23'3 5.8
2017-Dec-14 03:59N 37°48' W 122°19'1 1.8
2017-Dec-14 03:30N 37°48' W 122°20'1 2.3
2017-Dec-14 03:00N 37°48' W 122°22'0 0.9
2017-Dec-14 02:30N 37°48' W 122°21'1 2.2
2017-Dec-14 01:58N 37°49' W 122°20'0 0.0
2017-Dec-14 01:28N 37°49' W 122°20'0 0.3
2017-Dec-14 01:01N 37°49' W 122°20'0 0.2
2017-Dec-14 00:30N 37°49' W 122°20'0 0.1
2017-Dec-13 23:59N 37°49' W 122°20'0 0.0
2017-Dec-13 23:30N 37°49' W 122°20'4 8.9
2017-Dec-13 23:00N 37°49' W 122°26'3 6.5
2017-Dec-13 22:30N 37°48' W 122°30'2 4.6
2017-Dec-13 22:00N 37°50' W 122°28'4 8.1
2017-Dec-13 21:30N 37°54' W 122°26'612.4
2017-Dec-13 21:00N 37°60' W 122°25'510.9
2017-Dec-13 20:30N 38°03' W 122°20'4 8.7
2017-Dec-13 20:00N 38°04' W 122°14'4 8.1
2017-Dec-13 19:27N 38°02' W 122°09'1 1.5
2017-Dec-13 18:49N 38°02' W 122°08'0 0.1
2017-Dec-13 18:25N 38°02' W 122°08'0 0.3
2017-Dec-13 18:00N 38°02' W 122°08'1 0.1
2017-Dec-13 08:06N 38°02' W 122°09'1 0.8
2017-Dec-13 06:55N 38°02' W 122°08'2 2.0
2017-Dec-13 05:53N 38°03' W 122°11'410.3
2017-Dec-13 05:30N 38°04' W 122°16'510.1
2017-Dec-13 05:00N 38°02' W 122°22'510.0
2017-Dec-13 04:30N 37°58' W 122°26'511.0
2017-Dec-13 04:00N 37°53' W 122°26'4 8.2
2017-Dec-13 03:31N 37°49' W 122°29'1 1.1
2017-Dec-13 03:00N 37°49' W 122°30'4 8.5
2017-Dec-13 02:31N 37°50' W 122°24'5 9.6
2017-Dec-13 02:01N 37°46' W 122°21'1 1.4
2017-Dec-13 01:31N 37°45' W 122°20'4 7.1
2017-Dec-13 00:56N 37°48' W 122°24'0 0.0
2017-Dec-13 00:26N 37°48' W 122°24'0 0.0
2017-Dec-12 23:56N 37°48' W 122°24'0 0.0
2017-Dec-12 23:29N 37°48' W 122°24'0 0.0
2017-Dec-12 22:59N 37°48' W 122°24'0 0.0
2017-Dec-12 22:29N 37°48' W 122°24'0 0.0
2017-Dec-12 21:56N 37°48' W 122°24'0 0.0
2017-Dec-12 21:29N 37°48' W 122°24'0 0.0
2017-Dec-12 20:59N 37°48' W 122°24'0 0.0
2017-Dec-12 20:30N 37°48' W 122°24'5 9.7
2017-Dec-12 20:00N 37°44' W 122°21'0 0.5
2017-Dec-12 19:30N 37°44' W 122°21'3 6.8
2017-Dec-12 19:00N 37°47' W 122°23'4 8.8
2017-Dec-12 18:30N 37°51' W 122°25'5 9.8
2017-Dec-12 18:00N 37°56' W 122°27'5 9.4
2017-Dec-12 17:30N 38°01' W 122°24'4 8.8
2017-Dec-12 17:00N 38°03' W 122°20'4 7.9
2017-Dec-12 16:30N 38°04' W 122°15'4 6.9
2017-Dec-12 15:59N 38°03' W 122°10'3 5.9
2017-Dec-12 15:25N 38°03' W 122°06'1 1.2
2017-Dec-12 14:50N 38°03' W 122°05'5 7.2
2017-Dec-12 14:08N 38°03' W 122°12'111.7
2017-Dec-12 14:00N 38°04' W 122°14'611.2
2017-Dec-12 13:30N 38°02' W 122°21'611.7
2017-Dec-12 13:00N 37°58' W 122°26'3 4.5
2017-Dec-12 12:18N 37°55' W 122°25'0 0.1
2017-Dec-12 11:51N 37°55' W 122°25'1 2.3
2017-Dec-12 11:30N 37°55' W 122°25'2 3.2
2017-Dec-12 11:00N 37°53' W 122°25'2 4.6
2017-Dec-12 10:29N 37°56' W 122°25'0 0.0
2017-Dec-12 09:59N 37°56' W 122°25'0 0.0
2017-Dec-12 09:29N 37°56' W 122°25'0 0.0
2017-Dec-12 08:59N 37°56' W 122°25'0 0.0
2017-Dec-12 08:29N 37°56' W 122°25'0 0.0
2017-Dec-12 07:59N 37°56' W 122°25'0 0.0
2017-Dec-12 07:29N 37°56' W 122°25'0 0.0
2017-Dec-12 06:59N 37°56' W 122°25'0 0.0
2017-Dec-12 06:29N 37°56' W 122°25'0 0.0
2017-Dec-12 05:59N 37°56' W 122°25'0 0.0
2017-Dec-12 05:29N 37°56' W 122°25'0 0.0
2017-Dec-12 04:59N 37°56' W 122°25'0 0.0
2017-Dec-12 04:29N 37°56' W 122°25'0 0.0
2017-Dec-12 03:59N 37°56' W 122°25'0 0.0
2017-Dec-12 03:29N 37°56' W 122°25'0 0.0
2017-Dec-12 02:59N 37°56' W 122°25'0 0.2
2017-Dec-12 02:30N 37°56' W 122°25'0 0.2
2017-Dec-12 02:00N 37°56' W 122°25'1 2.3
2017-Dec-12 01:30N 37°54' W 122°25'1 1.5
2017-Dec-12 01:00N 37°54' W 122°25'2 2.9
2017-Dec-12 00:29N 37°55' W 122°25'0 0.0
2017-Dec-11 23:59N 37°55' W 122°25'0 0.0
2017-Dec-11 23:29N 37°55' W 122°25'2 4.6
2017-Dec-11 23:00N 37°57' W 122°26'611.5
2017-Dec-11 22:30N 38°02' W 122°22'612.7
2017-Dec-11 22:00N 38°04' W 122°14'4 1.9
2017-Dec-11 19:42N 38°02' W 122°09'1 1.9
2017-Dec-11 19:18N 38°02' W 122°08'0 0.0
2017-Dec-11 19:00N 38°02' W 122°08'1 2.3
2017-Dec-11 18:30N 38°02' W 122°09'1 0.4
2017-Dec-11 15:27N 38°03' W 122°11'4 8.9
2017-Dec-11 14:59N 38°03' W 122°16'0 0.0
2017-Dec-11 14:29N 38°03' W 122°16'0 0.3
2017-Dec-11 13:57N 38°04' W 122°16'2 4.4
2017-Dec-11 13:30N 38°03' W 122°18'510.1
2017-Dec-11 13:00N 38°01' W 122°24'611.3
2017-Dec-11 12:30N 37°56' W 122°27'510.6
2017-Dec-11 12:00N 37°51' W 122°24'4 7.3
2017-Dec-11 11:31N 37°49' W 122°28'2 3.2
2017-Dec-11 11:00N 37°48' W 122°29'3 5.8
2017-Dec-11 10:30N 37°49' W 122°26'2 3.5
2017-Dec-11 09:57N 37°48' W 122°24'0 0.0
2017-Dec-11 09:30N 37°48' W 122°24'0 0.0
2017-Dec-11 09:00N 37°48' W 122°24'0 0.0
2017-Dec-11 08:30N 37°48' W 122°24'0 0.0
2017-Dec-11 07:57N 37°48' W 122°24'0 0.0
2017-Dec-11 07:30N 37°48' W 122°24'0 0.0
2017-Dec-11 06:54N 37°48' W 122°24'0 0.0
2017-Dec-11 06:30N 37°48' W 122°24'0 0.0
2017-Dec-11 06:00N 37°48' W 122°24'0 0.0
2017-Dec-11 05:30N 37°48' W 122°24'0 0.0
2017-Dec-11 05:00N 37°48' W 122°24'0 0.0
2017-Dec-11 04:30N 37°48' W 122°24'0 0.0
2017-Dec-11 03:57N 37°48' W 122°24'0 0.0
2017-Dec-11 03:30N 37°48' W 122°24'1 1.7
2017-Dec-11 03:00N 37°48' W 122°23'3 5.4
2017-Dec-11 02:29N 37°48' W 122°19'1 1.1
2017-Dec-11 02:00N 37°48' W 122°20'3 5.4
2017-Dec-11 01:30N 37°48' W 122°23'0 0.8
2017-Dec-11 01:00N 37°48' W 122°24'0 0.0
2017-Dec-11 00:30N 37°48' W 122°24'0 0.0
2017-Dec-11 00:00N 37°48' W 122°24'0 0.0
2017-Dec-10 23:30N 37°48' W 122°24'0 0.0
2017-Dec-10 23:00N 37°48' W 122°24'0 0.0
2017-Dec-10 22:30N 37°48' W 122°24'0 0.0
2017-Dec-10 22:00N 37°48' W 122°24'0 0.0
2017-Dec-10 21:27N 37°48' W 122°24'0 0.0
2017-Dec-10 21:00N 37°48' W 122°24'0 0.0
2017-Dec-10 20:30N 37°48' W 122°24'0 0.0
2017-Dec-10 19:54N 37°48' W 122°24'0 0.0
2017-Dec-10 19:30N 37°48' W 122°24'0 0.0
2017-Dec-10 19:00N 37°48' W 122°24'0 0.0
2017-Dec-10 18:30N 37°48' W 122°24'0 0.0
2017-Dec-10 18:00N 37°48' W 122°24'0 0.0
2017-Dec-10 17:30N 37°48' W 122°24'0 0.0
2017-Dec-10 17:00N 37°48' W 122°24'0 0.0
2017-Dec-10 16:30N 37°48' W 122°24'0 0.0
2017-Dec-10 16:00N 37°48' W 122°24'0 0.0
2017-Dec-10 15:30N 37°48' W 122°24'0 0.0
2017-Dec-10 15:00N 37°48' W 122°24'1 2.0
2017-Dec-10 14:30N 37°48' W 122°23'2 3.5
2017-Dec-10 13:59N 37°49' W 122°20'1 1.4
2017-Dec-10 13:31N 37°49' W 122°20'2 4.2
2017-Dec-10 13:01N 37°48' W 122°22'1 2.6
2017-Dec-10 12:30N 37°48' W 122°20'0 0.0
2017-Dec-10 12:00N 37°48' W 122°20'0 0.0
2017-Dec-10 11:30N 37°48' W 122°20'0 0.0
2017-Dec-10 11:00N 37°48' W 122°20'0 0.0
2017-Dec-10 10:30N 37°48' W 122°20'0 0.1
2017-Dec-10 10:00N 37°48' W 122°21'0 0.1
2017-Dec-10 09:30N 37°48' W 122°20'0 0.0
2017-Dec-10 09:00N 37°48' W 122°20'0 0.0
2017-Dec-10 08:30N 37°48' W 122°20'2 2.8
2017-Dec-10 07:58N 37°48' W 122°19'0 0.3
2017-Dec-10 07:31N 37°48' W 122°19'1 1.9
2017-Dec-10 07:00N 37°48' W 122°17'2 3.9
2017-Dec-10 06:30N 37°48' W 122°20'2 4.6
2017-Dec-10 06:00N 37°49' W 122°23'3 5.7
2017-Dec-10 05:30N 37°51' W 122°24'3 6.4
2017-Dec-10 05:00N 37°55' W 122°24'2 3.6
2017-Dec-10 04:25N 37°55' W 122°22'0 0.0
2017-Dec-10 03:58N 37°55' W 122°22'0 0.0
2017-Dec-10 03:28N 37°55' W 122°22'0 0.0
2017-Dec-10 02:58N 37°55' W 122°22'0 0.0
2017-Dec-10 02:25N 37°55' W 122°22'0 0.0
2017-Dec-10 01:58N 37°55' W 122°22'0 0.0
2017-Dec-10 01:30N 37°55' W 122°22'0 0.3
2017-Dec-10 00:58N 37°55' W 122°22'0 0.0
2017-Dec-10 00:28N 37°55' W 122°22'0 0.0
2017-Dec-09 23:58N 37°55' W 122°22'0 0.0
2017-Dec-09 23:28N 37°55' W 122°22'0 0.0
2017-Dec-09 22:58N 37°55' W 122°22'0 0.0
2017-Dec-09 22:25N 37°55' W 122°22'0 1.1
2017-Dec-09 22:00N 37°55' W 122°22'1 2.1
2017-Dec-09 21:29N 37°54' W 122°23'0 0.1
2017-Dec-09 20:59N 37°54' W 122°23'0 0.0
2017-Dec-09 20:29N 37°54' W 122°23'0 0.0
2017-Dec-09 19:59N 37°54' W 122°23'0 0.0
2017-Dec-09 19:29N 37°54' W 122°23'0 0.1
2017-Dec-09 18:59N 37°54' W 122°23'0 0.1
2017-Dec-09 18:29N 37°54' W 122°23'0 0.1
2017-Dec-09 17:59N 37°54' W 122°23'0 0.0
2017-Dec-09 17:29N 37°54' W 122°23'0 0.0
2017-Dec-09 16:59N 37°54' W 122°23'0 0.1
2017-Dec-09 16:30N 37°54' W 122°23'1 2.3
2017-Dec-09 15:58N 37°55' W 122°22'0 0.0
2017-Dec-09 15:25N 37°55' W 122°22'0 0.0
2017-Dec-09 14:58N 37°55' W 122°22'0 0.0
2017-Dec-09 14:28N 37°55' W 122°22'0 0.0
2017-Dec-09 13:58N 37°55' W 122°22'0 0.0
2017-Dec-09 13:28N 37°55' W 122°22'0 0.0
2017-Dec-09 12:58N 37°55' W 122°22'0 0.0
2017-Dec-09 12:28N 37°55' W 122°22'0 0.0
2017-Dec-09 11:58N 37°55' W 122°22'0 0.0
2017-Dec-09 11:28N 37°55' W 122°22'0 0.0
2017-Dec-09 10:58N 37°55' W 122°22'0 0.0
2017-Dec-09 10:28N 37°55' W 122°22'0 0.0
2017-Dec-09 09:58N 37°55' W 122°22'0 0.0
2017-Dec-09 09:28N 37°55' W 122°22'0 0.0
2017-Dec-09 08:58N 37°55' W 122°22'0 0.0
2017-Dec-09 08:28N 37°55' W 122°22'0 0.0
2017-Dec-09 07:55N 37°55' W 122°22'0 0.0
2017-Dec-09 07:28N 37°55' W 122°22'0 0.0
2017-Dec-09 06:58N 37°55' W 122°22'0 0.0
2017-Dec-09 06:28N 37°55' W 122°22'0 0.0
2017-Dec-09 05:58N 37°55' W 122°22'0 0.0
2017-Dec-09 05:28N 37°55' W 122°22'0 0.0
2017-Dec-09 04:58N 37°55' W 122°22'0 0.0
2017-Dec-09 04:28N 37°55' W 122°22'0 0.0
2017-Dec-09 03:58N 37°55' W 122°22'0 0.0
2017-Dec-09 03:28N 37°55' W 122°22'0 0.0
2017-Dec-09 02:58N 37°55' W 122°22'0 0.0
2017-Dec-09 02:28N 37°55' W 122°22'0 0.0
2017-Dec-09 01:55N 37°55' W 122°22'2 5.1
2017-Dec-09 01:30N 37°55' W 122°24'5 9.4
2017-Dec-09 01:00N 37°50' W 122°24'2 2.9
2017-Dec-09 00:29N 37°48' W 122°24'0 0.1
2017-Dec-08 23:56N 37°48' W 122°24'0 0.4
2017-Dec-08 23:29N 37°48' W 122°24'0 0.0
2017-Dec-08 22:59N 37°48' W 122°24'0 0.0
2017-Dec-08 22:26N 37°48' W 122°24'1 3.3
2017-Dec-08 22:00N 37°50' W 122°24'510.3
2017-Dec-08 21:30N 37°55' W 122°25'5 8.9
2017-Dec-08 21:00N 37°59' W 122°25'5 9.6
2017-Dec-08 20:30N 38°02' W 122°21'5 9.0
2017-Dec-08 19:59N 38°03' W 122°15'0 0.0
2017-Dec-08 19:29N 38°03' W 122°15'0 0.0
2017-Dec-08 18:59N 38°03' W 122°15'0 0.1
2017-Dec-08 18:29N 38°03' W 122°15'0 0.1
2017-Dec-08 17:59N 38°03' W 122°15'0 0.0
2017-Dec-08 17:29N 38°03' W 122°15'0 0.0
2017-Dec-08 16:53N 38°03' W 122°15'0 0.0
2017-Dec-08 16:29N 38°03' W 122°15'0 0.0
2017-Dec-08 15:59N 38°03' W 122°15'0 0.9
2017-Dec-08 15:30N 38°04' W 122°15'0 0.6
2017-Dec-08 14:50N 38°03' W 122°16'0 0.2
2017-Dec-08 14:30N 38°03' W 122°16'1 1.4
2017-Dec-08 13:54N 38°03' W 122°15'0 0.0
2017-Dec-08 13:30N 38°03' W 122°15'0 0.0
2017-Dec-08 13:00N 38°03' W 122°15'0 0.0
2017-Dec-08 12:24N 38°03' W 122°15'0 0.0
2017-Dec-08 12:00N 38°03' W 122°15'0 0.0
2017-Dec-08 11:30N 38°03' W 122°15'0 0.0
2017-Dec-08 11:00N 38°03' W 122°15'0 0.0
2017-Dec-08 10:30N 38°03' W 122°15'0 0.0
2017-Dec-08 10:00N 38°03' W 122°15'0 0.1
2017-Dec-08 09:30N 38°03' W 122°15'510.2
2017-Dec-08 09:00N 38°02' W 122°09'0 0.2
2017-Dec-08 07:28N 38°02' W 122°08'2 1.0
2017-Dec-08 05:24N 38°03' W 122°11'3 7.8
2017-Dec-08 05:00N 38°04' W 122°15'4 7.5
2017-Dec-08 04:30N 38°03' W 122°19'4 8.1
2017-Dec-08 04:00N 38°01' W 122°24'4 7.9
2017-Dec-08 03:30N 37°57' W 122°26'4 8.5
2017-Dec-08 03:00N 37°53' W 122°25'510.9
2017-Dec-08 02:30N 37°48' W 122°22'1 2.4
2017-Dec-08 02:00N 37°49' W 122°20'0 0.1
2017-Dec-08 01:30N 37°49' W 122°20'3 5.3
2017-Dec-08 00:57N 37°48' W 122°24'0 0.0
2017-Dec-08 00:30N 37°48' W 122°24'0 0.0
2017-Dec-08 00:00N 37°48' W 122°24'0 0.0
2017-Dec-07 23:27N 37°48' W 122°24'0 0.0
2017-Dec-07 23:00N 37°48' W 122°24'0 0.0
2017-Dec-07 22:30N 37°48' W 122°24'0 0.0
2017-Dec-07 22:00N 37°48' W 122°24'0 0.0
2017-Dec-07 21:21N 37°48' W 122°24'0 0.0
2017-Dec-07 20:57N 37°48' W 122°24'0 0.0
2017-Dec-07 20:30N 37°48' W 122°24'0 0.0
2017-Dec-07 20:00N 37°48' W 122°24'0 0.0
2017-Dec-07 19:27N 37°48' W 122°24'0 0.0
2017-Dec-07 19:00N 37°48' W 122°24'0 0.0
2017-Dec-07 18:30N 37°48' W 122°24'611.2
2017-Dec-07 18:00N 37°54' W 122°25'2 3.7
2017-Dec-07 17:30N 37°56' W 122°25'0 0.0
2017-Dec-07 14:56N 37°56' W 122°25'0 0.0
2017-Dec-07 14:27N 37°56' W 122°25'0 0.5
2017-Dec-07 13:58N 37°55' W 122°25'0 0.1
2017-Dec-07 13:31N 37°55' W 122°25'1 2.4
2017-Dec-07 13:00N 37°56' W 122°26'4 8.0
2017-Dec-07 12:30N 38°00' W 122°25'5 9.8
2017-Dec-07 12:00N 38°03' W 122°20'4 8.3
2017-Dec-07 11:30N 38°04' W 122°15'3 6.5
2017-Dec-07 11:00N 38°03' W 122°11'3 5.9
2017-Dec-07 10:27N 38°03' W 122°06'0 0.7
2017-Dec-07 09:57N 38°03' W 122°06'2 3.8
2017-Dec-07 09:29N 38°02' W 122°08'0 0.0
2017-Dec-07 08:59N 38°02' W 122°08'0 0.0
2017-Dec-07 07:41N 38°02' W 122°08'0 0.0
2017-Dec-07 07:29N 38°02' W 122°08'0 0.0
2017-Dec-07 06:59N 38°02' W 122°08'1 1.0
2017-Dec-07 06:18N 38°02' W 122°07'1 3.1
2017-Dec-07 06:00N 38°02' W 122°09'  

Dump ship's entire track history